KDLS/DLS METAR and TAF weather

Enter ICAO airport designator
Station Type Date Time Source
KDLS METAR 2021/05/12 01:53 UTC NOAA

KDLS 120153Z AUTO 32009KT 10SM CLR 25/03 A3001 RMK AO2 SLP162 T02500028


Station Type Date Time Source
KDLS Decoded METAR 2021/05/12 01:53 UTC NOAA

THE DALLES MUNICIPAL AIRPORT , OR, United States (KDLS) 45-37N 121-10W 71M
May 11, 2021 - 09:53 PM EDT / 2021.05.12 0153 UTC
Wind: from the NW (320 degrees) at 10 MPH (9 KT):0
Visibility: 10 mile(s):0
Sky conditions: clear
Temperature: 77.0 F (25.0 C)
Dew Point: 37.0 F (2.8 C)
Relative Humidity: 23%
Pressure (altimeter): 30.01 in. Hg (1016 hPa)
ob: KDLS 120153Z AUTO 32009KT 10SM CLR 25/03 A3001 RMK AO2 SLP162 T02500028
cycle: 2

Station Type Date Time Source
KDLS TAF 2021/05/11 18:21 UTC NOAA

TAF KDLS 111720Z 1118/1218 32008KT P6SM SCT250
FM120200 32007KT P6SM BKN200

Example: see airport list